Page Field
KFMY : rendu visible

Aérodrome :











RETROUVEZ-NOUS SUR...

 
LOGIN :

S'inscrire | Disclaimer

   EN    FR    IT 

 









Légende :    VFR   VFR Marginal   IFR   IFR Intensif   IFR Très Intensif
Visi : 
Plafond : 
>= 8 km
>= 3000ft
5 à 8 km
1000 à 3000 ft
1500m à 5 km
500 à 1000 ft
800 à 1500m
200 à 500 ft
< 800m
< 200 ft
Symboles :   Orages  Brouillard  Fortes neiges  Fortes précipitations  Vent > 20 kt






- Altitude de l'aérodrome : 17 ft


KFMY - Page Field

DERNIER METAR :
  • 281153Z 06007KT 10SM BKN017 BKN022 BKN039 16/12 A2991 RMK AO2 SLP131 T01610117 10183 20161 53013

METARs EXPIRÉS :
  • 281053Z AUTO 06005KT 10SM OVC015 16/13 A2989 RMK AO2 SLP122 T01610128
  • 281044Z AUTO 04005KT 10SM BKN016 16/13 A2988 RMK AO2 T01610128
  • 281011Z AUTO 05003KT 10SM SCT006 17/14 A2987 RMK AO2 T01670139
  • 280953Z AUTO 06004KT 10SM OVC006 18/14 A2987 RMK AO2 SLP116 T01780144
  • 280942Z AUTO 06003KT 10SM OVC006 18/15 A2987 RMK AO2 T01780150

TAF KFMY
Valide du 28 à 12h jusqu'au 29 à 12h UTC


281121Z 2812/2912 04005KT P6SM SCT006 BKN015 OVC050
TEMPO 2812/2814 BKN006
FM281500 05009KT P6SM SCT050
FM282000 36007KT P6SM FEW050
FM290200 05005KT P6SM SCT050 SCT250



MET'MAP, la Météo Aéronautique d'un coup d'oeil ! - Copyright ORBIFLY Décembre 2007 - Disclaimer

ORBIFLY MET'MAP TEAM :

Programmation & Développement : Alexandra Zaïnal
Sur une idée originale de : Baudouin d'Aumeries
Assistance à la programmation : Marc-Olivier Méhu
Soutien technique & logistique : Manuel Goepfert

Contact : metmap@orbifly.com




SOURCES & CREDITS :

   NOAA       Earth
Advisory